Time,TemperatureF,DewpointF,PressureIn,WindDirection,WindDirectionDegrees,WindSpeedMPH,WindSpeedGustMPH,Humidity,HourlyPrecipIn,Conditions,Clouds,dailyrainin,SoftwareType,DateUTC
2013-11-06 00:13:00,37.0,35.0,30.53,SSW,197,0.0,0.0,92,0.00,,,0.00,,2013-11-06 05:13:00,
2013-11-06 00:23:00,38.0,36.0,30.53,SSW,197,0.0,0.0,93,0.00,,,0.00,,2013-11-06 05:23:00,
2013-11-06 00:44:00,38.0,36.0,30.51,SSW,197,0.0,0.0,92,0.00,,,0.00,,2013-11-06 05:44:00,
2013-11-06 00:53:00,38.0,36.0,30.50,SSW,197,0.0,0.0,92,0.00,,,0.00,,2013-11-06 05:53:00,
2013-11-06 01:22:00,39.0,37.0,30.50,SSW,197,0.0,0.0,91,0.00,,,0.00,,2013-11-06 06:22:00,
2013-11-06 01:32:00,39.0,37.0,30.50,SSW,197,0.0,0.0,91,0.00,,,0.00,,2013-11-06 06:32:00,
2013-11-06 01:42:00,39.0,37.0,30.50,SSW,197,0.0,0.0,91,0.00,,,0.00,,2013-11-06 06:42:00,
2013-11-06 01:52:00,38.0,36.0,30.50,SSW,197,0.0,0.0,92,0.00,,,0.00,,2013-11-06 06:52:00,
2013-11-06 02:12:00,38.0,36.0,30.50,SSW,197,0.0,1.0,92,0.00,,,0.00,,2013-11-06 07:12:00,
2013-11-06 02:22:00,38.0,36.0,30.50,SSW,197,0.0,0.0,92,0.00,,,0.00,,2013-11-06 07:22:00,
2013-11-06 02:42:00,38.0,36.0,30.48,SSW,198,0.0,0.0,92,0.00,,,0.00,,2013-11-06 07:42:00,
2013-11-06 02:52:00,38.0,36.0,30.47,SSW,198,0.0,0.0,92,0.00,,,0.00,,2013-11-06 07:52:00,
2013-11-06 03:02:00,38.0,36.0,30.47,SSW,198,0.0,0.0,92,0.00,,,0.00,,2013-11-06 08:02:00,
2013-11-06 03:22:00,38.0,36.0,30.46,SSW,198,0.0,0.0,92,0.00,,,0.00,,2013-11-06 08:22:00,
2013-11-06 03:42:00,38.0,36.0,30.46,SSW,198,0.0,0.0,92,0.00,,,0.00,,2013-11-06 08:42:00,
2013-11-06 03:52:00,38.0,36.0,30.46,SSW,198,0.0,0.0,93,0.00,,,0.00,,2013-11-06 08:52:00,
2013-11-06 04:22:00,38.0,36.0,30.46,SSW,198,0.0,0.0,93,0.00,,,0.00,,2013-11-06 09:22:00,
2013-11-06 04:43:00,38.0,36.0,30.46,SSW,198,0.0,0.0,94,0.00,,,0.00,,2013-11-06 09:43:00,
2013-11-06 04:53:00,37.0,35.0,30.46,SSW,197,0.0,2.0,94,0.00,,,0.00,,2013-11-06 09:53:00,
2013-11-06 05:23:00,38.0,37.0,30.45,SSW,198,0.0,0.0,95,0.00,,,0.00,,2013-11-06 10:23:00,
2013-11-06 05:33:00,38.0,37.0,30.45,SSW,198,0.0,0.0,95,0.00,,,0.00,,2013-11-06 10:33:00,
2013-11-06 05:53:00,38.0,36.0,30.44,SSW,197,0.0,0.0,94,0.00,,,0.00,,2013-11-06 10:53:00,
2013-11-06 06:22:00,39.0,38.0,30.45,SSW,197,0.0,0.0,95,0.00,,,0.00,,2013-11-06 11:22:00,
2013-11-06 06:33:00,39.0,38.0,30.45,SSW,197,0.0,0.0,95,0.00,,,0.00,,2013-11-06 11:33:00,
2013-11-06 06:42:00,39.0,38.0,30.45,SSW,197,0.0,0.0,95,0.00,,,0.00,,2013-11-06 11:42:00,
2013-11-06 06:52:00,40.0,39.0,30.45,SSW,197,0.0,0.0,96,0.00,,,0.00,,2013-11-06 11:52:00,
2013-11-06 07:22:00,40.0,39.0,30.44,SSW,197,0.0,0.0,96,0.00,,,0.00,,2013-11-06 12:22:00,
2013-11-06 07:42:00,41.0,40.0,30.45,SSW,198,0.0,3.0,96,0.00,,,0.00,,2013-11-06 12:42:00,
2013-11-06 07:52:00,41.0,40.0,30.45,SSW,198,0.0,3.0,96,0.00,,,0.00,,2013-11-06 12:52:00,
2013-11-06 08:22:00,45.0,43.0,30.43,SSW,198,0.0,1.0,94,0.00,,,0.00,,2013-11-06 13:22:00,
2013-11-06 08:32:00,45.0,43.0,30.43,SSW,198,0.0,1.0,94,0.00,,,0.00,,2013-11-06 13:32:00,
2013-11-06 08:42:00,45.0,43.0,30.43,SSW,198,0.0,1.0,94,0.00,,,0.00,,2013-11-06 13:42:00,
2013-11-06 08:52:00,45.0,43.0,30.43,SSW,198,0.0,1.0,94,0.00,,,0.00,,2013-11-06 13:52:00,
2013-11-06 09:21:00,56.0,46.0,30.41,SSW,193,6.0,11.0,69,0.00,,,0.00,,2013-11-06 14:21:00,
2013-11-06 09:22:00,53.0,46.0,30.43,SSW,202,5.0,9.0,76,0.00,,,0.00,,2013-11-06 14:22:00,
2013-11-06 09:52:00,56.0,46.0,30.41,SSW,193,6.0,11.0,69,0.00,,,0.00,,2013-11-06 14:52:00,
2013-11-06 10:02:00,56.0,46.0,30.41,SSW,193,6.0,11.0,69,0.00,,,0.00,,2013-11-06 15:02:00,
2013-11-06 10:11:00,56.0,46.0,30.41,SSW,193,6.0,11.0,69,0.00,,,0.00,,2013-11-06 15:11:00,
2013-11-06 10:54:00,56.0,47.0,30.39,SSW,201,4.0,12.0,72,0.00,,,0.00,,2013-11-06 15:54:00,
2013-11-06 11:23:00,56.0,47.0,30.37,South,187,7.0,13.0,72,0.00,,,0.00,,2013-11-06 16:23:00,
2013-11-06 11:41:00,56.0,47.0,30.34,SSW,209,10.0,15.0,73,0.00,,,0.00,,2013-11-06 16:41:00,
2013-11-06 11:42:00,55.0,47.0,30.37,SSW,209,9.0,14.0,74,0.00,,,0.00,,2013-11-06 16:42:00,
2013-11-06 11:53:00,55.0,47.0,30.37,SSW,209,9.0,14.0,74,0.00,,,0.00,,2013-11-06 16:53:00,
2013-11-06 12:13:00,56.0,47.0,30.34,SSW,209,10.0,15.0,73,0.00,,,0.00,,2013-11-06 17:13:00,
2013-11-06 12:23:00,56.0,47.0,30.34,SSW,209,10.0,15.0,73,0.00,,,0.00,,2013-11-06 17:23:00,
2013-11-06 12:33:00,56.0,47.0,30.34,SSW,209,10.0,15.0,73,0.00,,,0.00,,2013-11-06 17:33:00,
2013-11-06 12:52:00,57.0,49.0,30.31,SSW,200,6.0,13.0,75,0.00,,,0.00,,2013-11-06 17:52:00,
2013-11-06 13:12:00,57.0,49.0,30.31,SSW,198,11.0,18.0,74,0.00,,,0.00,,2013-11-06 18:12:00,
2013-11-06 13:22:00,57.0,49.0,30.31,SSW,198,11.0,18.0,74,0.00,,,0.00,,2013-11-06 18:22:00,
2013-11-06 13:42:00,58.0,50.0,30.29,SSW,197,7.0,14.0,75,0.00,,,0.00,,2013-11-06 18:42:00,
2013-11-06 13:52:00,58.0,50.0,30.28,SSW,199,5.0,16.0,76,0.00,,,0.00,,2013-11-06 18:52:00,
2013-11-06 14:11:00,57.0,50.0,30.28,SSW,203,6.0,18.0,76,0.00,,,0.00,,2013-11-06 19:11:00,
2013-11-06 14:22:00,57.0,50.0,30.28,SSW,203,6.0,18.0,76,0.00,,,0.00,,2013-11-06 19:22:00,
2013-11-06 14:42:00,56.0,50.0,30.27,SSW,198,12.0,18.0,80,0.00,,,0.00,,2013-11-06 19:42:00,
2013-11-06 14:52:00,56.0,50.0,30.27,SSW,202,7.0,17.0,80,0.00,,,0.00,,2013-11-06 19:52:00,
2013-11-06 15:02:00,56.0,50.0,30.27,SSW,202,7.0,17.0,80,0.00,,,0.00,,2013-11-06 20:02:00,
2013-11-06 15:22:00,56.0,51.0,30.26,SSW,198,11.0,17.0,83,0.00,,,0.00,,2013-11-06 20:22:00,
2013-11-06 15:32:00,56.0,51.0,30.26,SSW,198,11.0,17.0,83,0.00,,,0.00,,2013-11-06 20:32:00,
2013-11-06 15:52:00,55.0,51.0,30.25,SW,216,6.0,14.0,86,0.00,,,0.00,,2013-11-06 20:52:00,
2013-11-06 16:22:00,54.0,50.0,30.25,SSW,209,5.0,11.0,87,0.00,,,0.00,,2013-11-06 21:22:00,
2013-11-06 16:54:00,54.0,51.0,30.24,South,188,4.0,8.0,89,0.00,,,0.00,,2013-11-06 21:54:00,
2013-11-06 17:04:00,54.0,51.0,30.24,South,188,4.0,8.0,89,0.00,,,0.00,,2013-11-06 22:04:00,
2013-11-06 17:24:00,54.0,52.0,30.24,SSW,193,5.0,11.0,92,0.00,,,0.00,,2013-11-06 22:24:00,
2013-11-06 17:34:00,54.0,52.0,30.24,SSW,193,5.0,11.0,92,0.00,,,0.00,,2013-11-06 22:34:00,
2013-11-06 17:53:00,54.0,52.0,30.23,SSW,198,6.0,10.0,92,0.00,,,0.00,,2013-11-06 22:53:00,
2013-11-06 18:02:00,54.0,52.0,30.23,SSW,198,6.0,10.0,92,0.00,,,0.00,,2013-11-06 23:02:00,
2013-11-06 18:22:00,54.0,52.0,30.22,SSW,198,7.0,15.0,93,0.00,,,0.00,,2013-11-06 23:22:00,
2013-11-06 18:33:00,54.0,52.0,30.22,SSW,198,7.0,15.0,93,0.00,,,0.00,,2013-11-06 23:33:00,
2013-11-06 18:53:00,53.0,51.0,30.22,South,185,4.0,14.0,94,0.00,,,0.00,,2013-11-06 23:53:00,
2013-11-06 19:22:00,53.0,52.0,30.20,SSW,197,5.0,10.0,95,0.00,,,0.00,,2013-11-07 00:22:00,
2013-11-06 19:42:00,53.0,52.0,30.19,South,191,4.0,12.0,96,0.00,,,0.00,,2013-11-07 00:42:00,
2013-11-06 19:52:00,53.0,52.0,30.19,SSW,195,6.0,13.0,96,0.00,,,0.00,,2013-11-07 00:52:00,
2013-11-06 20:02:00,53.0,52.0,30.19,SSW,195,6.0,13.0,96,0.00,,,0.00,,2013-11-07 01:02:00,
2013-11-06 20:22:00,53.0,52.0,30.17,SSW,208,6.0,11.0,96,0.00,,,0.00,,2013-11-07 01:22:00,
2013-11-06 20:32:00,53.0,52.0,30.17,SSW,208,6.0,11.0,96,0.00,,,0.00,,2013-11-07 01:32:00,
2013-11-06 20:42:00,53.0,52.0,30.17,SSW,208,6.0,11.0,96,0.00,,,0.00,,2013-11-07 01:42:00,
2013-11-06 20:52:00,54.0,53.0,30.16,SSW,205,6.0,14.0,96,0.00,,,0.00,,2013-11-07 01:52:00,
2013-11-06 21:12:00,54.0,53.0,30.15,SSW,198,4.0,10.0,96,0.00,,,0.00,,2013-11-07 02:12:00,
2013-11-06 21:22:00,54.0,53.0,30.15,SSW,198,4.0,10.0,96,0.00,,,0.00,,2013-11-07 02:22:00,
2013-11-06 22:11:00,54.0,53.0,30.11,SSW,201,5.0,11.0,97,0.00,,,0.00,,2013-11-07 03:11:00,
2013-11-06 22:22:00,54.0,53.0,30.12,SSW,193,6.0,11.0,97,0.00,,,0.00,,2013-11-07 03:22:00,
2013-11-06 22:44:00,54.0,53.0,30.11,SSW,201,5.0,11.0,97,0.00,,,0.00,,2013-11-07 03:44:00,
2013-11-06 22:55:00,54.0,53.0,30.11,SSW,201,5.0,11.0,97,0.00,,,0.00,,2013-11-07 03:55:00,
2013-11-06 23:04:00,54.0,53.0,30.11,SSW,201,5.0,11.0,97,0.00,,,0.00,,2013-11-07 04:04:00,
2013-11-06 23:43:00,55.0,54.0,30.09,WSW,245,4.0,13.0,96,0.00,,,0.00,,2013-11-07 04:43:00,
2013-11-06 23:53:00,55.0,54.0,30.09,SW,229,4.0,16.0,95,0.00,,,0.00,,2013-11-07 04:53:00,